createdAt,value
2023-03-06T00:00:50.080Z,20.80
2023-03-06T00:03:19.500Z,29.50
2023-03-06T00:05:47.452Z,22.60
2023-03-06T00:08:15.414Z,21.90
2023-03-06T00:10:43.175Z,25.30
2023-03-06T00:13:13.913Z,23.90
2023-03-06T00:23:23.314Z,15.50
2023-03-06T00:25:51.031Z,25.10
2023-03-06T00:28:18.734Z,29.90
2023-03-06T00:30:47.462Z,18.00
2023-03-06T00:33:15.216Z,18.10
2023-03-06T00:35:43.025Z,12.00
2023-03-06T00:38:12.936Z,22.30
2023-03-06T00:40:40.783Z,22.10
2023-03-06T00:43:08.608Z,16.30
2023-03-06T00:45:37.599Z,24.10
2023-03-06T00:48:05.821Z,26.20
2023-03-06T00:50:35.203Z,30.00
2023-03-06T00:53:03.128Z,25.50
2023-03-06T00:55:32.891Z,21.50
2023-03-06T00:58:00.856Z,22.10
2023-03-06T01:00:29.067Z,23.40
2023-03-06T01:02:56.875Z,19.10
2023-03-06T01:05:24.753Z,25.80
2023-03-06T01:07:52.578Z,19.50
2023-03-06T01:10:20.432Z,19.80
2023-03-06T01:12:48.783Z,25.10
2023-03-06T01:15:16.561Z,20.50
2023-03-06T01:17:45.259Z,26.10
2023-03-06T01:20:15.864Z,12.60
2023-03-06T01:22:43.797Z,17.80
2023-03-06T01:25:12.325Z,17.30
2023-03-06T01:27:40.098Z,20.50
2023-03-06T01:30:12.604Z,15.50
2023-03-06T01:32:40.444Z,17.60
2023-03-06T01:35:09.415Z,22.10
2023-03-06T01:37:38.973Z,20.30
2023-03-06T01:40:09.420Z,89.60
2023-03-06T01:42:37.279Z,25.30
2023-03-06T01:45:26.634Z,37.90
2023-03-06T01:47:54.443Z,25.70
2023-03-06T01:50:22.260Z,49.10
2023-03-06T01:52:57.997Z,25.40
2023-03-06T01:55:31.331Z,18.00
2023-03-06T01:58:03.706Z,22.40
2023-03-06T02:00:32.168Z,33.70
2023-03-06T02:03:15.884Z,18.90
2023-03-06T02:05:45.415Z,28.50
2023-03-06T02:08:16.195Z,39.10
2023-03-06T02:11:06.728Z,54.50
2023-03-06T02:13:36.254Z,25.30
2023-03-06T02:16:04.578Z,20.00
2023-03-06T02:18:33.926Z,18.70
2023-03-06T02:21:09.304Z,15.00
2023-03-06T02:23:58.528Z,13.80
2023-03-06T02:26:28.264Z,12.80
2023-03-06T02:28:58.369Z,13.20
2023-03-06T02:31:30.418Z,15.20
2023-03-06T02:34:04.106Z,26.10
2023-03-06T02:36:35.320Z,17.20
2023-03-06T02:39:04.676Z,23.40
2023-03-06T02:41:32.500Z,14.80
2023-03-06T02:44:00.431Z,17.50
2023-03-06T02:46:30.007Z,23.90
2023-03-06T02:48:57.763Z,26.80
2023-03-06T02:51:26.509Z,27.30
2023-03-06T02:53:54.369Z,26.50
2023-03-06T02:56:23.013Z,33.00
2023-03-06T02:58:50.778Z,27.80
2023-03-06T03:01:18.619Z,21.40
2023-03-06T03:03:46.500Z,10.20
2023-03-06T03:06:16.201Z,17.10
2023-03-06T03:08:44.222Z,15.00
2023-03-06T03:11:12.510Z,29.30
2023-03-06T03:13:43.596Z,79.50
2023-03-06T03:16:15.793Z,68.80
2023-03-06T03:18:44.981Z,62.90
2023-03-06T03:21:14.393Z,75.90
2023-03-06T03:23:42.115Z,82.70
2023-03-06T03:26:13.481Z,61.80
2023-03-06T03:28:44.672Z,60.30
2023-03-06T03:31:13.559Z,45.00
2023-03-06T03:33:41.716Z,35.20
2023-03-06T03:36:09.889Z,36.00
2023-03-06T03:38:40.751Z,20.50
2023-03-06T03:41:09.227Z,31.70
2023-03-06T03:43:37.377Z,19.10
2023-03-06T03:46:06.007Z,24.80
2023-03-06T03:48:34.020Z,19.10
2023-03-06T03:51:10.896Z,25.30
2023-03-06T03:53:41.257Z,17.30
2023-03-06T03:56:11.678Z,26.00
2023-03-06T03:58:45.272Z,33.70
2023-03-06T04:01:13.463Z,37.80
2023-03-06T04:03:41.835Z,29.20
2023-03-06T04:06:10.103Z,32.10
2023-03-06T04:08:38.656Z,24.00
2023-03-06T04:11:06.897Z,20.70
2023-03-06T04:13:34.732Z,21.30
2023-03-06T04:16:02.987Z,21.50
2023-03-06T04:18:31.970Z,25.70
2023-03-06T04:21:03.552Z,26.30
2023-03-06T04:23:32.418Z,20.20
2023-03-06T04:26:00.883Z,33.20
2023-03-06T04:28:28.970Z,26.30
2023-03-06T04:30:57.663Z,23.10
2023-03-06T04:33:25.575Z,24.70
2023-03-06T04:35:54.888Z,26.60
2023-03-06T04:38:26.380Z,35.50
2023-03-06T04:40:54.228Z,39.00
2023-03-06T04:43:22.553Z,38.20
2023-03-06T04:45:50.268Z,31.60
2023-03-06T04:48:18.609Z,44.10
2023-03-06T04:50:46.921Z,35.00
2023-03-06T04:53:16.627Z,31.90
2023-03-06T04:55:44.387Z,27.40
2023-03-06T04:58:15.450Z,45.80
2023-03-06T05:00:43.157Z,29.60
2023-03-06T05:03:12.616Z,53.00
2023-03-06T05:05:40.987Z,41.90
2023-03-06T05:08:12.860Z,40.40
2023-03-06T05:10:41.421Z,62.60
2023-03-06T05:13:09.567Z,67.70
2023-03-06T05:15:40.333Z,47.00
2023-03-06T05:18:08.065Z,52.50
2023-03-06T05:20:35.844Z,54.60
2023-03-06T05:23:03.897Z,56.70
2023-03-06T05:25:31.659Z,55.80
2023-03-06T05:27:59.427Z,34.60
2023-03-06T05:30:27.208Z,55.00
2023-03-06T05:32:54.953Z,101.20
2023-03-06T05:35:23.633Z,113.40
2023-03-06T05:37:51.450Z,126.70
2023-03-06T05:40:19.830Z,170.80
2023-03-06T05:42:47.689Z,130.30
2023-03-06T05:45:15.507Z,121.50
2023-03-06T05:47:43.353Z,144.90
2023-03-06T05:50:13.940Z,123.00
2023-03-06T05:52:41.694Z,103.20
2023-03-06T05:55:12.254Z,104.90
2023-03-06T05:57:39.998Z,119.70
2023-03-06T06:00:09.884Z,82.60
2023-03-06T06:02:41.861Z,49.90
2023-03-06T06:05:12.847Z,36.90
2023-03-06T06:07:41.757Z,42.50
2023-03-06T06:10:11.883Z,43.30
2023-03-06T06:12:39.772Z,47.90
2023-03-06T06:15:08.616Z,37.30
2023-03-06T06:17:36.363Z,41.50
2023-03-06T06:20:04.464Z,48.80
2023-03-06T06:22:35.045Z,62.80
2023-03-06T06:25:02.825Z,52.00
2023-03-06T06:27:30.528Z,45.70
2023-03-06T06:29:58.231Z,40.10
2023-03-06T06:32:25.958Z,71.70
2023-03-06T06:34:53.858Z,45.20
2023-03-06T06:37:21.695Z,56.80
2023-03-06T06:39:49.467Z,57.90
2023-03-06T06:42:39.473Z,63.90
2023-03-06T06:45:06.514Z,99.30
2023-03-06T06:47:34.625Z,94.80
2023-03-06T06:50:02.923Z,52.90
2023-03-06T06:52:30.856Z,64.20
2023-03-06T06:55:02.104Z,58.70
2023-03-06T06:57:32.167Z,79.50
2023-03-06T06:59:59.991Z,57.70
2023-03-06T07:02:32.322Z,38.20
2023-03-06T07:05:04.961Z,45.90
2023-03-06T07:07:37.488Z,50.10
2023-03-06T07:10:08.137Z,49.40
2023-03-06T07:12:37.122Z,48.70
2023-03-06T07:15:06.243Z,52.10
2023-03-06T07:17:34.062Z,51.30
2023-03-06T07:20:01.867Z,72.20
2023-03-06T07:22:33.878Z,35.90
2023-03-06T07:25:10.096Z,36.30
2023-03-06T07:27:38.000Z,32.40
2023-03-06T07:30:06.924Z,43.80
2023-03-06T07:32:34.697Z,25.10
2023-03-06T07:35:18.988Z,39.60
2023-03-06T07:37:47.792Z,31.20
2023-03-06T07:40:15.606Z,35.00
2023-03-06T07:42:43.332Z,31.00
2023-03-06T07:45:13.156Z,28.90
2023-03-06T07:47:41.062Z,28.90
2023-03-06T07:50:09.748Z,29.40
2023-03-06T07:52:37.552Z,30.30
2023-03-06T07:55:05.785Z,24.80
2023-03-06T07:57:33.586Z,27.10
2023-03-06T08:00:01.335Z,25.10
2023-03-06T08:02:29.067Z,35.40
2023-03-06T08:04:57.206Z,30.80
2023-03-06T08:07:24.958Z,51.30
2023-03-06T08:09:52.666Z,29.50
2023-03-06T08:12:20.455Z,36.40
2023-03-06T08:14:50.147Z,34.20
2023-03-06T08:17:18.718Z,32.00
2023-03-06T08:19:50.864Z,26.70
2023-03-06T08:22:27.092Z,31.10
2023-03-06T08:24:59.727Z,24.60
2023-03-06T08:27:29.723Z,26.40
2023-03-06T08:30:03.293Z,27.40
2023-03-06T08:32:36.312Z,28.60
2023-03-06T08:35:07.135Z,36.80
2023-03-06T08:37:35.627Z,32.10
2023-03-06T08:40:04.739Z,39.20
2023-03-06T08:42:32.631Z,35.70
2023-03-06T08:45:00.405Z,64.40
2023-03-06T08:47:28.159Z,64.90
2023-03-06T08:49:55.894Z,53.00
2023-03-06T08:52:23.648Z,59.70
2023-03-06T08:54:51.375Z,57.60
2023-03-06T08:57:19.134Z,34.00
2023-03-06T08:59:46.875Z,35.00
2023-03-06T09:02:15.370Z,43.40
2023-03-06T09:04:43.222Z,50.20
2023-03-06T09:07:11.135Z,51.10
2023-03-06T09:09:38.929Z,61.00
2023-03-06T09:12:06.936Z,34.40
2023-03-06T09:14:34.648Z,42.80
2023-03-06T09:17:02.361Z,79.60
2023-03-06T09:19:30.087Z,214.20
2023-03-06T09:22:00.346Z,116.20
2023-03-06T09:24:28.378Z,91.90
2023-03-06T09:26:56.176Z,86.40
2023-03-06T09:29:23.941Z,80.10
2023-03-06T09:31:51.673Z,299.70
2023-03-06T09:34:19.573Z,91.40
2023-03-06T09:36:56.480Z,95.60
2023-03-06T09:39:26.092Z,60.00
2023-03-06T09:41:55.110Z,72.20
2023-03-06T09:44:26.159Z,87.50
2023-03-06T09:47:10.044Z,39.40
2023-03-06T09:52:30.423Z,33.50
2023-03-06T09:55:24.121Z,45.00
2023-03-06T09:57:58.781Z,31.90
2023-03-06T10:00:41.460Z,36.00
2023-03-06T10:03:21.539Z,42.30
2023-03-06T10:06:02.858Z,74.90
2023-03-06T10:09:04.920Z,37.20
2023-03-06T10:11:45.711Z,24.10
2023-03-06T10:18:45.999Z,26.20
2023-03-06T10:27:04.419Z,21.40
2023-03-06T10:37:58.183Z,23.70
2023-03-06T10:45:33.082Z,11.40
2023-03-06T11:01:45.224Z,25.80
2023-03-06T11:04:57.938Z,19.30
2023-03-06T11:08:55.247Z,26.90
2023-03-06T11:11:41.907Z,35.50
2023-03-06T11:14:29.776Z,25.50
2023-03-06T11:17:35.001Z,27.80
2023-03-06T11:20:50.978Z,21.60
2023-03-06T11:24:23.160Z,25.40
2023-03-06T11:33:26.249Z,23.60
2023-03-06T11:46:58.489Z,26.30
2023-03-06T12:03:57.972Z,36.50
2023-03-06T12:25:19.903Z,61.80
2023-03-06T12:28:13.086Z,51.80
2023-03-06T12:31:17.010Z,61.10
2023-03-06T12:33:58.381Z,48.40
2023-03-06T12:36:38.242Z,34.20
2023-03-06T12:39:16.852Z,52.30
2023-03-06T12:42:22.884Z,101.00
2023-03-06T12:45:23.427Z,34.40
2023-03-06T12:47:56.334Z,55.80
2023-03-06T12:50:45.428Z,54.20
2023-03-06T12:53:30.460Z,34.60
2023-03-06T12:56:00.903Z,45.70
2023-03-06T12:58:31.495Z,67.00
2023-03-06T13:01:31.379Z,134.70
2023-03-06T13:04:31.048Z,66.50
2023-03-06T13:07:19.851Z,57.90
2023-03-06T13:10:07.572Z,31.50
2023-03-06T13:12:47.403Z,109.00
2023-03-06T13:15:47.112Z,52.30
2023-03-06T13:18:32.363Z,39.00
2023-03-06T13:21:00.642Z,82.60
2023-03-06T13:23:37.317Z,41.40
2023-03-06T13:26:31.087Z,44.60
2023-03-06T13:28:58.826Z,54.50
2023-03-06T13:31:34.113Z,268.50
2023-03-06T13:34:04.635Z,82.80
2023-03-06T13:36:39.624Z,82.70
2023-03-06T13:39:12.012Z,62.20
2023-03-06T13:41:53.181Z,51.70
2023-03-06T13:44:24.248Z,24.30
2023-03-06T13:47:20.351Z,26.20
2023-03-06T13:49:48.797Z,20.60
2023-03-06T13:52:32.470Z,41.30
2023-03-06T13:55:15.097Z,18.00
2023-03-06T13:58:13.724Z,29.90
2023-03-06T14:01:00.329Z,22.80
2023-03-06T14:03:50.990Z,19.30
2023-03-06T14:06:34.644Z,21.10
2023-03-06T14:09:06.092Z,14.40
2023-03-06T14:11:35.748Z,12.00
2023-03-06T14:14:03.857Z,20.50
2023-03-06T14:16:49.269Z,16.80
2023-03-06T14:19:19.740Z,20.00
2023-03-06T14:21:51.041Z,18.10
2023-03-06T14:24:21.429Z,16.40
2023-03-06T14:26:51.273Z,21.80
2023-03-06T14:29:23.895Z,12.20
2023-03-06T14:31:54.590Z,20.80
2023-03-06T14:34:45.766Z,24.30
2023-03-06T14:37:22.765Z,21.90
2023-03-06T14:39:51.765Z,20.20
2023-03-06T14:42:27.752Z,20.80
2023-03-06T14:45:16.170Z,16.30
2023-03-06T14:47:51.024Z,21.70
2023-03-06T14:50:19.178Z,17.70
2023-03-06T14:52:48.519Z,19.20
2023-03-06T14:55:20.887Z,23.00
2023-03-06T14:58:13.365Z,19.60
2023-03-06T15:00:44.878Z,25.40
2023-03-06T15:03:18.338Z,17.20
2023-03-06T15:05:47.437Z,16.80
2023-03-06T15:08:23.495Z,19.40
2023-03-06T15:10:56.276Z,16.80
2023-03-06T15:13:26.548Z,19.10
2023-03-06T15:16:11.518Z,20.40
2023-03-06T15:18:58.028Z,21.40
2023-03-06T15:21:28.488Z,18.00
2023-03-06T15:23:57.580Z,18.30
2023-03-06T15:26:36.960Z,18.50
2023-03-06T15:29:11.036Z,26.10
2023-03-06T15:31:46.175Z,18.20
2023-03-06T15:34:23.469Z,22.90
2023-03-06T15:36:54.447Z,18.90
2023-03-06T15:39:41.500Z,24.30
2023-03-06T15:42:26.278Z,24.00
2023-03-06T15:44:56.420Z,17.60
2023-03-06T15:47:24.519Z,26.90
2023-03-06T15:49:53.244Z,18.00
2023-03-06T15:52:22.939Z,29.90
2023-03-06T15:54:50.709Z,18.30
2023-03-06T15:57:24.596Z,18.60
2023-03-06T15:59:53.446Z,17.30
2023-03-06T16:02:23.441Z,22.40
2023-03-06T16:04:51.937Z,13.30
2023-03-06T16:07:20.513Z,19.40
2023-03-06T16:09:48.560Z,14.20
2023-03-06T16:12:21.327Z,14.70
2023-03-06T16:14:49.204Z,30.20
2023-03-06T16:17:17.393Z,15.00
2023-03-06T16:19:45.380Z,21.40
2023-03-06T16:22:13.660Z,21.00
2023-03-06T16:24:41.728Z,23.70
2023-03-06T16:27:17.825Z,20.40
2023-03-06T16:29:45.574Z,20.60
2023-03-06T16:32:13.309Z,19.10
2023-03-06T16:34:41.053Z,25.60
2023-03-06T16:37:12.761Z,22.30
2023-03-06T16:39:40.820Z,21.90
2023-03-06T16:42:08.650Z,21.80
2023-03-06T16:44:36.363Z,21.70
2023-03-06T16:47:04.380Z,33.90
2023-03-06T16:49:32.101Z,47.80
2023-03-06T16:52:00.471Z,40.50
2023-03-06T16:54:28.205Z,38.20
2023-03-06T16:56:55.952Z,29.90
2023-03-06T16:59:24.856Z,37.00
2023-03-06T17:01:52.645Z,29.50
2023-03-06T17:04:20.390Z,29.60
2023-03-06T17:06:48.101Z,32.10
2023-03-06T17:09:16.079Z,42.40
2023-03-06T17:11:46.676Z,37.50
2023-03-06T17:14:14.552Z,41.00
2023-03-06T17:16:42.506Z,33.90
2023-03-06T17:19:15.149Z,29.00
2023-03-06T17:21:43.788Z,108.90
2023-03-06T17:24:11.695Z,45.60
2023-03-06T17:26:40.088Z,34.60
2023-03-06T17:29:09.170Z,41.20
2023-03-06T17:31:36.942Z,36.50
2023-03-06T17:34:04.902Z,36.30
2023-03-06T17:36:32.925Z,33.60
2023-03-06T17:39:02.815Z,43.80
2023-03-06T17:41:32.709Z,93.50
2023-03-06T17:44:01.621Z,115.70
2023-03-06T17:46:31.713Z,157.20
2023-03-06T17:48:59.600Z,154.60
2023-03-06T17:51:27.408Z,277.60
2023-03-06T17:53:55.609Z,213.30
2023-03-06T17:56:23.388Z,136.50
2023-03-06T17:58:51.363Z,120.00
2023-03-06T18:01:21.934Z,68.70
2023-03-06T18:03:51.131Z,64.80
2023-03-06T18:06:20.877Z,56.70
2023-03-06T18:08:51.022Z,226.90
2023-03-06T18:11:21.267Z,117.30
2023-03-06T18:13:49.918Z,67.30
2023-03-06T18:16:21.007Z,74.20
2023-03-06T18:18:52.710Z,92.60
2023-03-06T18:21:21.724Z,140.80
2023-03-06T18:23:50.337Z,151.90
2023-03-06T18:28:55.908Z,129.00
2023-03-06T18:31:42.984Z,88.90
2023-03-06T18:34:14.056Z,84.10
2023-03-06T18:36:43.436Z,62.70
2023-03-06T18:39:13.451Z,83.00
2023-03-06T18:41:42.032Z,79.40
2023-03-06T18:44:14.569Z,84.00
2023-03-06T18:46:42.361Z,73.40
2023-03-06T18:49:12.737Z,79.50
2023-03-06T18:51:40.927Z,64.40
2023-03-06T18:54:08.720Z,56.80
2023-03-06T18:56:37.091Z,59.00
2023-03-06T18:59:06.687Z,66.30
2023-03-06T19:01:34.817Z,68.40
2023-03-06T19:04:04.035Z,59.80
2023-03-06T19:06:32.208Z,65.90
2023-03-06T19:09:01.667Z,54.90
2023-03-06T19:11:30.785Z,66.80
2023-03-06T19:13:59.171Z,62.50
2023-03-06T19:16:29.065Z,67.20
2023-03-06T19:18:57.448Z,75.40
2023-03-06T19:21:27.388Z,65.90
2023-03-06T19:23:56.163Z,52.60
2023-03-06T19:26:24.431Z,43.80
2023-03-06T19:28:52.502Z,41.60
2023-03-06T19:31:24.872Z,60.70
2023-03-06T19:33:54.775Z,54.20
2023-03-06T19:36:27.283Z,52.00
2023-03-06T19:38:57.504Z,66.80
2023-03-06T19:41:26.258Z,62.20
2023-03-06T19:43:58.271Z,61.70
2023-03-06T19:46:26.951Z,65.70
2023-03-06T19:49:00.390Z,70.10
2023-03-06T19:53:57.422Z,114.90
2023-03-06T19:56:28.703Z,110.60
2023-03-06T19:58:56.613Z,93.80
2023-03-06T20:01:26.918Z,108.10
2023-03-06T20:03:59.756Z,94.90
2023-03-06T20:06:31.030Z,77.30
2023-03-06T20:08:59.012Z,77.60
2023-03-06T20:11:31.916Z,88.90
2023-03-06T20:14:01.905Z,75.80
2023-03-06T20:16:30.760Z,76.00
2023-03-06T20:19:00.179Z,80.90
2023-03-06T20:21:29.976Z,86.20
2023-03-06T20:23:58.171Z,81.30
2023-03-06T20:26:28.426Z,83.80
2023-03-06T20:28:56.766Z,92.40
2023-03-06T20:31:27.682Z,90.50
2023-03-06T20:33:58.123Z,86.70
2023-03-06T20:36:29.982Z,91.90
2023-03-06T20:39:03.290Z,94.80
2023-03-06T20:41:31.612Z,101.30
2023-03-06T20:44:01.593Z,97.60
2023-03-06T20:46:30.281Z,95.60
2023-03-06T20:48:58.157Z,93.50
2023-03-06T20:51:28.640Z,96.80
2023-03-06T20:53:56.455Z,82.20
2023-03-06T20:56:26.771Z,89.70
2023-03-06T20:58:54.591Z,86.60
2023-03-06T21:01:30.778Z,99.40
2023-03-06T21:03:59.304Z,88.10
2023-03-06T21:06:28.495Z,95.50
2023-03-06T21:08:57.706Z,81.90
2023-03-06T21:11:25.806Z,95.80
2023-03-06T21:13:53.632Z,90.40
2023-03-06T21:16:24.605Z,79.60
2023-03-06T21:18:54.978Z,89.50
2023-03-06T21:21:25.710Z,75.90
2023-03-06T21:23:53.518Z,85.60
2023-03-06T21:26:23.747Z,69.80
2023-03-06T21:28:51.885Z,67.20
2023-03-06T21:31:21.798Z,96.20
2023-03-06T21:33:50.078Z,84.40
2023-03-06T21:36:21.289Z,76.60
2023-03-06T21:38:50.571Z,80.50
2023-03-06T21:41:25.113Z,72.40
2023-03-06T21:43:58.314Z,62.30
2023-03-06T21:46:27.513Z,83.50
2023-03-06T21:48:56.851Z,75.00
2023-03-06T21:51:25.698Z,83.30
2023-03-06T21:53:54.753Z,78.30
2023-03-06T21:56:25.321Z,68.20
2023-03-06T21:58:53.929Z,74.90
2023-03-06T22:01:25.236Z,58.80
2023-03-06T22:03:53.179Z,58.70
2023-03-06T22:06:24.036Z,63.10
2023-03-06T22:08:52.420Z,53.70
2023-03-06T22:11:22.063Z,62.60
2023-03-06T22:13:51.332Z,52.50
2023-03-06T22:16:20.707Z,50.60
2023-03-06T22:18:50.345Z,52.90
2023-03-06T22:21:21.398Z,50.20
2023-03-06T22:23:57.417Z,73.00
2023-03-06T22:26:26.907Z,58.10
2023-03-06T22:28:54.709Z,58.50
2023-03-06T22:31:24.986Z,66.20
2023-03-06T22:33:53.869Z,70.50
2023-03-06T22:36:22.956Z,48.80
2023-03-06T22:38:54.818Z,62.10
2023-03-06T22:41:23.076Z,38.50
2023-03-06T22:43:50.830Z,54.90
2023-03-06T22:46:19.044Z,48.30
2023-03-06T22:48:46.921Z,51.30
2023-03-06T22:51:17.091Z,65.50
2023-03-06T22:53:45.677Z,52.80
2023-03-06T22:56:16.385Z,57.40
2023-03-06T22:58:44.893Z,49.80
2023-03-06T23:01:21.156Z,53.40
2023-03-06T23:03:51.368Z,62.40
2023-03-06T23:06:25.399Z,49.80
2023-03-06T23:08:59.637Z,64.40
2023-03-06T23:11:29.726Z,51.60
2023-03-06T23:14:14.486Z,62.40
2023-03-06T23:16:58.273Z,55.90
2023-03-06T23:19:40.885Z,48.10
2023-03-06T23:25:09.099Z,44.70
2023-03-06T23:27:36.947Z,44.30
2023-03-06T23:30:05.814Z,52.60
2023-03-06T23:32:33.690Z,48.30
2023-03-06T23:35:01.606Z,49.60
2023-03-06T23:37:29.559Z,50.10
2023-03-06T23:39:57.760Z,50.60
2023-03-06T23:42:25.478Z,48.40
2023-03-06T23:44:53.274Z,43.30
2023-03-06T23:47:21.099Z,48.60
2023-03-06T23:49:48.941Z,52.10
2023-03-06T23:52:16.631Z,51.20
2023-03-06T23:54:44.331Z,52.30
2023-03-06T23:57:12.030Z,52.40
2023-03-06T23:59:39.721Z,50.80
